sensor_id;sensor_type;location;lat;lon;timestamp;P1;durP1;ratioP1;P2;durP2;ratioP2
29774;SDS011;16676;51.202;6.774;2023-02-22T00:03:05;7.35;;;5.30;;
29774;SDS011;16676;51.202;6.774;2023-02-22T00:07:07;8.77;;;6.03;;
29774;SDS011;16676;51.202;6.774;2023-02-22T00:11:10;8.25;;;5.38;;
29774;SDS011;16676;51.202;6.774;2023-02-22T00:15:14;7.50;;;5.30;;
29774;SDS011;16676;51.202;6.774;2023-02-22T00:19:17;7.45;;;5.07;;
29774;SDS011;16676;51.202;6.774;2023-02-22T00:23:20;8.38;;;6.00;;
29774;SDS011;16676;51.202;6.774;2023-02-22T00:27:25;9.23;;;6.25;;
29774;SDS011;16676;51.202;6.774;2023-02-22T00:31:27;7.60;;;5.88;;
29774;SDS011;16676;51.202;6.774;2023-02-22T00:35:29;7.97;;;5.65;;
29774;SDS011;16676;51.202;6.774;2023-02-22T00:39:32;7.30;;;5.40;;
29774;SDS011;16676;51.202;6.774;2023-02-22T00:43:35;9.00;;;5.82;;
29774;SDS011;16676;51.202;6.774;2023-02-22T00:47:37;8.10;;;5.57;;
29774;SDS011;16676;51.202;6.774;2023-02-22T00:51:39;7.28;;;5.47;;
29774;SDS011;16676;51.202;6.774;2023-02-22T00:55:41;8.75;;;5.78;;
29774;SDS011;16676;51.202;6.774;2023-02-22T00:59:44;9.27;;;6.05;;
29774;SDS011;16676;51.202;6.774;2023-02-22T01:03:46;7.07;;;5.82;;
29774;SDS011;16676;51.202;6.774;2023-02-22T01:07:48;7.97;;;5.50;;
29774;SDS011;16676;51.202;6.774;2023-02-22T01:11:51;7.38;;;5.70;;
29774;SDS011;16676;51.202;6.774;2023-02-22T01:15:56;8.10;;;5.78;;
29774;SDS011;16676;51.202;6.774;2023-02-22T01:19:59;9.98;;;5.93;;
29774;SDS011;16676;51.202;6.774;2023-02-22T01:24:02;7.70;;;5.97;;
29774;SDS011;16676;51.202;6.774;2023-02-22T01:28:05;7.60;;;5.88;;
29774;SDS011;16676;51.202;6.774;2023-02-22T01:32:09;7.88;;;5.53;;
29774;SDS011;16676;51.202;6.774;2023-02-22T01:36:12;8.30;;;5.88;;
29774;SDS011;16676;51.202;6.774;2023-02-22T01:40:14;7.90;;;5.53;;
29774;SDS011;16676;51.202;6.774;2023-02-22T01:44:20;7.70;;;5.78;;
29774;SDS011;16676;51.202;6.774;2023-02-22T01:48:30;7.65;;;5.78;;
29774;SDS011;16676;51.202;6.774;2023-02-22T01:52:39;9.13;;;6.10;;
29774;SDS011;16676;51.202;6.774;2023-02-22T01:56:44;9.88;;;6.10;;
29774;SDS011;16676;51.202;6.774;2023-02-22T02:00:49;7.53;;;5.85;;
29774;SDS011;16676;51.202;6.774;2023-02-22T02:04:53;13.35;;;6.60;;
29774;SDS011;16676;51.202;6.774;2023-02-22T02:08:57;7.47;;;5.80;;
29774;SDS011;16676;51.202;6.774;2023-02-22T02:13:05;7.18;;;5.82;;
29774;SDS011;16676;51.202;6.774;2023-02-22T02:17:07;8.23;;;5.93;;
29774;SDS011;16676;51.202;6.774;2023-02-22T02:21:22;8.20;;;6.13;;
29774;SDS011;16676;51.202;6.774;2023-02-22T02:25:47;8.60;;;5.97;;
29774;SDS011;16676;51.202;6.774;2023-02-22T02:34:48;7.77;;;5.80;;
29774;SDS011;16676;51.202;6.774;2023-02-22T02:38:54;6.65;;;5.53;;
29774;SDS011;16676;51.202;6.774;2023-02-22T02:43:06;8.30;;;5.97;;
29774;SDS011;16676;51.202;6.774;2023-02-22T02:47:16;7.00;;;5.75;;
29774;SDS011;16676;51.202;6.774;2023-02-22T02:51:23;7.20;;;5.45;;
29774;SDS011;16676;51.202;6.774;2023-02-22T02:55:29;8.18;;;6.10;;
29774;SDS011;16676;51.202;6.774;2023-02-22T02:59:35;7.97;;;5.90;;
29774;SDS011;16676;51.202;6.774;2023-02-22T03:03:43;6.47;;;5.25;;
29774;SDS011;16676;51.202;6.774;2023-02-22T03:07:51;7.13;;;5.22;;
29774;SDS011;16676;51.202;6.774;2023-02-22T03:12:05;7.85;;;5.90;;
29774;SDS011;16676;51.202;6.774;2023-02-22T03:16:18;8.93;;;6.07;;
29774;SDS011;16676;51.202;6.774;2023-02-22T03:20:37;8.48;;;6.13;;
29774;SDS011;16676;51.202;6.774;2023-02-22T03:24:46;7.25;;;5.72;;
29774;SDS011;16676;51.202;6.774;2023-02-22T03:32:57;8.55;;;6.13;;
29774;SDS011;16676;51.202;6.774;2023-02-22T03:37:10;8.30;;;6.13;;
29774;SDS011;16676;51.202;6.774;2023-02-22T03:41:18;7.28;;;5.55;;
29774;SDS011;16676;51.202;6.774;2023-02-22T03:45:24;7.72;;;5.85;;
29774;SDS011;16676;51.202;6.774;2023-02-22T03:49:30;9.82;;;6.57;;
29774;SDS011;16676;51.202;6.774;2023-02-22T03:53:35;8.65;;;5.85;;
29774;SDS011;16676;51.202;6.774;2023-02-22T03:57:39;8.13;;;5.78;;
29774;SDS011;16676;51.202;6.774;2023-02-22T04:01:43;7.85;;;5.80;;
29774;SDS011;16676;51.202;6.774;2023-02-22T04:05:45;7.70;;;5.97;;
29774;SDS011;16676;51.202;6.774;2023-02-22T04:09:48;8.38;;;6.00;;
29774;SDS011;16676;51.202;6.774;2023-02-22T04:13:51;7.90;;;6.03;;
29774;SDS011;16676;51.202;6.774;2023-02-22T04:17:54;8.23;;;5.95;;
29774;SDS011;16676;51.202;6.774;2023-02-22T04:21:55;8.40;;;6.10;;
29774;SDS011;16676;51.202;6.774;2023-02-22T04:25:57;7.30;;;5.60;;
29774;SDS011;16676;51.202;6.774;2023-02-22T04:30:01;7.70;;;6.03;;
29774;SDS011;16676;51.202;6.774;2023-02-22T04:34:03;7.78;;;5.82;;
29774;SDS011;16676;51.202;6.774;2023-02-22T04:38:05;8.63;;;5.70;;
29774;SDS011;16676;51.202;6.774;2023-02-22T04:42:08;7.20;;;5.57;;
29774;SDS011;16676;51.202;6.774;2023-02-22T04:46:12;9.05;;;6.47;;
29774;SDS011;16676;51.202;6.774;2023-02-22T04:50:14;9.05;;;6.30;;
29774;SDS011;16676;51.202;6.774;2023-02-22T04:54:16;8.00;;;5.82;;
29774;SDS011;16676;51.202;6.774;2023-02-22T04:58:18;8.05;;;5.88;;
29774;SDS011;16676;51.202;6.774;2023-02-22T05:02:22;8.95;;;5.55;;
29774;SDS011;16676;51.202;6.774;2023-02-22T05:06:24;8.85;;;6.75;;
29774;SDS011;16676;51.202;6.774;2023-02-22T05:10:26;8.98;;;6.03;;
29774;SDS011;16676;51.202;6.774;2023-02-22T05:14:28;7.28;;;5.70;;
29774;SDS011;16676;51.202;6.774;2023-02-22T05:18:32;8.45;;;5.80;;
29774;SDS011;16676;51.202;6.774;2023-02-22T05:22:34;8.93;;;6.40;;
29774;SDS011;16676;51.202;6.774;2023-02-22T05:26:36;10.15;;;6.97;;
29774;SDS011;16676;51.202;6.774;2023-02-22T05:30:39;7.15;;;5.63;;
29774;SDS011;16676;51.202;6.774;2023-02-22T05:34:43;9.95;;;6.70;;
29774;SDS011;16676;51.202;6.774;2023-02-22T05:38:44;9.02;;;6.35;;
29774;SDS011;16676;51.202;6.774;2023-02-22T05:42:47;9.13;;;6.47;;
29774;SDS011;16676;51.202;6.774;2023-02-22T05:46:50;8.98;;;6.47;;
29774;SDS011;16676;51.202;6.774;2023-02-22T05:50:53;8.77;;;6.18;;
29774;SDS011;16676;51.202;6.774;2023-02-22T05:54:55;7.97;;;5.65;;
29774;SDS011;16676;51.202;6.774;2023-02-22T05:58:57;9.30;;;6.72;;
29774;SDS011;16676;51.202;6.774;2023-02-22T06:03:00;9.27;;;6.82;;
29774;SDS011;16676;51.202;6.774;2023-02-22T06:07:05;8.68;;;6.22;;
29774;SDS011;16676;51.202;6.774;2023-02-22T06:11:07;10.27;;;6.35;;
29774;SDS011;16676;51.202;6.774;2023-02-22T06:15:09;9.52;;;6.38;;
29774;SDS011;16676;51.202;6.774;2023-02-22T06:19:11;8.70;;;6.25;;
29774;SDS011;16676;51.202;6.774;2023-02-22T06:23:14;9.18;;;6.43;;
29774;SDS011;16676;51.202;6.774;2023-02-22T06:27:17;8.68;;;6.45;;
29774;SDS011;16676;51.202;6.774;2023-02-22T06:31:18;9.73;;;6.10;;
29774;SDS011;16676;51.202;6.774;2023-02-22T06:35:20;9.70;;;6.85;;
29774;SDS011;16676;51.202;6.774;2023-02-22T06:39:24;8.65;;;6.10;;
29774;SDS011;16676;51.202;6.774;2023-02-22T06:43:26;9.82;;;6.93;;
29774;SDS011;16676;51.202;6.774;2023-02-22T06:47:28;12.73;;;6.45;;
29774;SDS011;16676;51.202;6.774;2023-02-22T06:51:33;11.43;;;7.00;;
29774;SDS011;16676;51.202;6.774;2023-02-22T06:55:38;9.05;;;5.90;;
29774;SDS011;16676;51.202;6.774;2023-02-22T06:59:40;12.73;;;6.30;;
29774;SDS011;16676;51.202;6.774;2023-02-22T07:03:42;8.65;;;6.15;;
29774;SDS011;16676;51.202;6.774;2023-02-22T07:07:44;9.43;;;6.28;;
29774;SDS011;16676;51.202;6.774;2023-02-22T07:11:48;8.98;;;6.28;;
29774;SDS011;16676;51.202;6.774;2023-02-22T07:15:50;10.73;;;6.60;;
29774;SDS011;16676;51.202;6.774;2023-02-22T07:19:52;7.38;;;5.72;;
29774;SDS011;16676;51.202;6.774;2023-02-22T07:23:55;8.45;;;5.65;;
29774;SDS011;16676;51.202;6.774;2023-02-22T07:27:59;7.55;;;6.05;;
29774;SDS011;16676;51.202;6.774;2023-02-22T07:32:01;9.95;;;6.68;;
29774;SDS011;16676;51.202;6.774;2023-02-22T07:36:03;9.18;;;6.28;;
29774;SDS011;16676;51.202;6.774;2023-02-22T07:40:06;9.18;;;6.25;;
29774;SDS011;16676;51.202;6.774;2023-02-22T07:44:10;9.45;;;6.00;;
29774;SDS011;16676;51.202;6.774;2023-02-22T07:48:13;8.55;;;6.40;;
29774;SDS011;16676;51.202;6.774;2023-02-22T07:52:16;9.45;;;6.47;;
29774;SDS011;16676;51.202;6.774;2023-02-22T07:56:18;8.93;;;6.57;;
29774;SDS011;16676;51.202;6.774;2023-02-22T08:00:23;11.05;;;6.57;;
29774;SDS011;16676;51.202;6.774;2023-02-22T08:04:26;33.65;;;20.17;;
29774;SDS011;16676;51.202;6.774;2023-02-22T08:08:28;29.25;;;19.33;;
29774;SDS011;16676;51.202;6.774;2023-02-22T08:12:30;29.50;;;17.80;;
29774;SDS011;16676;51.202;6.774;2023-02-22T08:16:33;28.95;;;18.73;;
29774;SDS011;16676;51.202;6.774;2023-02-22T08:20:36;28.92;;;18.60;;
29774;SDS011;16676;51.202;6.774;2023-02-22T08:24:38;27.25;;;18.05;;
29774;SDS011;16676;51.202;6.774;2023-02-22T08:28:40;33.28;;;19.08;;
29774;SDS011;16676;51.202;6.774;2023-02-22T08:32:45;29.33;;;16.85;;
29774;SDS011;16676;51.202;6.774;2023-02-22T08:36:47;27.95;;;15.65;;
29774;SDS011;16676;51.202;6.774;2023-02-22T08:40:49;28.67;;;15.70;;
29774;SDS011;16676;51.202;6.774;2023-02-22T08:44:51;24.73;;;14.45;;
29774;SDS011;16676;51.202;6.774;2023-02-22T08:48:54;27.27;;;15.30;;
29774;SDS011;16676;51.202;6.774;2023-02-22T08:52:57;25.75;;;16.00;;
29774;SDS011;16676;51.202;6.774;2023-02-22T08:57:00;26.27;;;13.38;;
29774;SDS011;16676;51.202;6.774;2023-02-22T09:01:02;21.00;;;12.43;;
29774;SDS011;16676;51.202;6.774;2023-02-22T09:05:06;19.60;;;11.13;;
29774;SDS011;16676;51.202;6.774;2023-02-22T09:09:08;18.27;;;11.35;;
29774;SDS011;16676;51.202;6.774;2023-02-22T09:13:10;16.52;;;11.20;;
29774;SDS011;16676;51.202;6.774;2023-02-22T09:17:13;16.27;;;10.18;;
29774;SDS011;16676;51.202;6.774;2023-02-22T09:21:16;15.07;;;9.32;;
29774;SDS011;16676;51.202;6.774;2023-02-22T09:25:18;14.05;;;8.88;;
29774;SDS011;16676;51.202;6.774;2023-02-22T09:29:21;15.57;;;8.27;;
29774;SDS011;16676;51.202;6.774;2023-02-22T09:33:25;12.23;;;7.28;;
29774;SDS011;16676;51.202;6.774;2023-02-22T09:37:28;12.15;;;7.45;;
29774;SDS011;16676;51.202;6.774;2023-02-22T09:41:30;10.68;;;6.95;;
29774;SDS011;16676;51.202;6.774;2023-02-22T09:45:41;9.60;;;6.25;;
29774;SDS011;16676;51.202;6.774;2023-02-22T09:49:54;10.55;;;5.97;;
29774;SDS011;16676;51.202;6.774;2023-02-22T09:54:03;9.25;;;5.80;;
29774;SDS011;16676;51.202;6.774;2023-02-22T09:58:16;8.23;;;5.40;;
29774;SDS011;16676;51.202;6.774;2023-02-22T10:02:24;8.85;;;5.30;;
29774;SDS011;16676;51.202;6.774;2023-02-22T10:06:29;8.80;;;5.30;;
29774;SDS011;16676;51.202;6.774;2023-02-22T10:10:36;9.38;;;5.05;;
29774;SDS011;16676;51.202;6.774;2023-02-22T10:15:04;9.52;;;4.72;;
29774;SDS011;16676;51.202;6.774;2023-02-22T10:19:29;6.40;;;4.18;;
29774;SDS011;16676;51.202;6.774;2023-02-22T10:23:40;6.85;;;4.18;;
29774;SDS011;16676;51.202;6.774;2023-02-22T10:27:53;7.65;;;3.97;;
29774;SDS011;16676;51.202;6.774;2023-02-22T10:31:58;7.22;;;4.05;;
29774;SDS011;16676;51.202;6.774;2023-02-22T10:36:03;4.85;;;3.40;;
29774;SDS011;16676;51.202;6.774;2023-02-22T10:40:11;5.63;;;3.70;;
29774;SDS011;16676;51.202;6.774;2023-02-22T10:44:17;5.78;;;3.45;;
29774;SDS011;16676;51.202;6.774;2023-02-22T10:48:19;7.63;;;3.72;;
29774;SDS011;16676;51.202;6.774;2023-02-22T10:52:26;5.90;;;3.53;;
29774;SDS011;16676;51.202;6.774;2023-02-22T10:56:29;6.00;;;3.70;;
29774;SDS011;16676;51.202;6.774;2023-02-22T11:00:33;4.50;;;3.33;;
29774;SDS011;16676;51.202;6.774;2023-02-22T11:04:44;4.88;;;3.33;;
29774;SDS011;16676;51.202;6.774;2023-02-22T11:08:48;6.68;;;3.65;;
29774;SDS011;16676;51.202;6.774;2023-02-22T11:12:51;8.35;;;3.58;;
29774;SDS011;16676;51.202;6.774;2023-02-22T11:16:55;6.05;;;3.33;;
29774;SDS011;16676;51.202;6.774;2023-02-22T11:20:59;5.82;;;3.60;;
29774;SDS011;16676;51.202;6.774;2023-02-22T11:25:02;5.60;;;3.45;;
29774;SDS011;16676;51.202;6.774;2023-02-22T11:29:11;6.93;;;3.90;;
29774;SDS011;16676;51.202;6.774;2023-02-22T11:33:20;5.15;;;3.33;;
29774;SDS011;16676;51.202;6.774;2023-02-22T11:37:26;6.68;;;3.45;;
29774;SDS011;16676;51.202;6.774;2023-02-22T11:41:32;9.50;;;3.83;;
29774;SDS011;16676;51.202;6.774;2023-02-22T11:45:35;5.05;;;3.05;;
29774;SDS011;16676;51.202;6.774;2023-02-22T11:49:39;5.15;;;3.40;;
29774;SDS011;16676;51.202;6.774;2023-02-22T11:57:54;6.27;;;3.10;;
29774;SDS011;16676;51.202;6.774;2023-02-22T12:02:17;7.57;;;3.38;;
29774;SDS011;16676;51.202;6.774;2023-02-22T12:06:34;6.03;;;3.20;;
29774;SDS011;16676;51.202;6.774;2023-02-22T12:10:48;17.30;;;9.10;;
29774;SDS011;16676;51.202;6.774;2023-02-22T12:14:58;16.05;;;9.70;;
29774;SDS011;16676;51.202;6.774;2023-02-22T12:19:09;17.73;;;10.27;;
29774;SDS011;16676;51.202;6.774;2023-02-22T12:23:17;15.95;;;9.38;;
29774;SDS011;16676;51.202;6.774;2023-02-22T12:27:24;17.02;;;9.13;;
29774;SDS011;16676;51.202;6.774;2023-02-22T12:31:31;17.80;;;9.20;;
29774;SDS011;16676;51.202;6.774;2023-02-22T12:35:38;19.00;;;8.65;;
29774;SDS011;16676;51.202;6.774;2023-02-22T12:39:51;16.00;;;8.57;;
29774;SDS011;16676;51.202;6.774;2023-02-22T12:43:59;17.48;;;8.80;;
29774;SDS011;16676;51.202;6.774;2023-02-22T12:48:07;14.70;;;8.85;;
29774;SDS011;16676;51.202;6.774;2023-02-22T12:52:23;14.45;;;8.63;;
29774;SDS011;16676;51.202;6.774;2023-02-22T12:56:42;14.00;;;7.55;;
29774;SDS011;16676;51.202;6.774;2023-02-22T13:00:50;12.70;;;7.28;;
29774;SDS011;16676;51.202;6.774;2023-02-22T13:04:59;11.68;;;6.55;;
29774;SDS011;16676;51.202;6.774;2023-02-22T13:09:05;14.77;;;6.50;;
29774;SDS011;16676;51.202;6.774;2023-02-22T13:13:22;8.80;;;6.03;;
29774;SDS011;16676;51.202;6.774;2023-02-22T13:17:31;11.27;;;5.63;;
29774;SDS011;16676;51.202;6.774;2023-02-22T13:21:41;11.57;;;5.75;;
29774;SDS011;16676;51.202;6.774;2023-02-22T13:25:47;10.23;;;5.85;;
29774;SDS011;16676;51.202;6.774;2023-02-22T13:29:58;9.60;;;5.47;;
29774;SDS011;16676;51.202;6.774;2023-02-22T13:34:05;9.75;;;5.05;;
29774;SDS011;16676;51.202;6.774;2023-02-22T13:38:35;10.63;;;5.07;;
29774;SDS011;16676;51.202;6.774;2023-02-22T13:43:04;7.22;;;4.45;;
29774;SDS011;16676;51.202;6.774;2023-02-22T13:47:34;8.65;;;4.57;;
29774;SDS011;16676;51.202;6.774;2023-02-22T13:51:57;7.97;;;4.05;;
29774;SDS011;16676;51.202;6.774;2023-02-22T13:56:01;10.48;;;4.30;;
29774;SDS011;16676;51.202;6.774;2023-02-22T14:00:21;7.13;;;4.30;;
29774;SDS011;16676;51.202;6.774;2023-02-22T14:04:40;6.85;;;3.90;;
29774;SDS011;16676;51.202;6.774;2023-02-22T14:08:43;6.47;;;4.28;;
29774;SDS011;16676;51.202;6.774;2023-02-22T14:12:46;4.93;;;3.78;;
29774;SDS011;16676;51.202;6.774;2023-02-22T14:21:31;4.75;;;3.47;;
29774;SDS011;16676;51.202;6.774;2023-02-22T14:25:36;5.30;;;3.38;;
29774;SDS011;16676;51.202;6.774;2023-02-22T14:29:47;5.95;;;3.35;;
29774;SDS011;16676;51.202;6.774;2023-02-22T14:33:55;6.72;;;3.70;;
29774;SDS011;16676;51.202;6.774;2023-02-22T14:38:00;6.05;;;3.25;;
29774;SDS011;16676;51.202;6.774;2023-02-22T14:42:04;4.93;;;3.63;;
29774;SDS011;16676;51.202;6.774;2023-02-22T14:46:09;5.13;;;3.45;;
29774;SDS011;16676;51.202;6.774;2023-02-22T14:54:25;4.95;;;3.03;;
29774;SDS011;16676;51.202;6.774;2023-02-22T14:58:32;6.22;;;3.53;;
29774;SDS011;16676;51.202;6.774;2023-02-22T15:02:38;5.38;;;2.80;;
29774;SDS011;16676;51.202;6.774;2023-02-22T15:06:41;4.13;;;2.60;;
29774;SDS011;16676;51.202;6.774;2023-02-22T15:10:45;5.63;;;3.10;;
29774;SDS011;16676;51.202;6.774;2023-02-22T15:14:48;4.22;;;2.83;;
29774;SDS011;16676;51.202;6.774;2023-02-22T15:18:51;3.92;;;2.38;;
29774;SDS011;16676;51.202;6.774;2023-02-22T15:22:57;3.60;;;2.30;;
29774;SDS011;16676;51.202;6.774;2023-02-22T15:27:03;3.60;;;2.45;;
29774;SDS011;16676;51.202;6.774;2023-02-22T15:31:16;6.85;;;2.95;;
29774;SDS011;16676;51.202;6.774;2023-02-22T15:35:31;4.45;;;2.75;;
29774;SDS011;16676;51.202;6.774;2023-02-22T15:39:33;5.40;;;2.75;;
29774;SDS011;16676;51.202;6.774;2023-02-22T15:43:44;5.45;;;2.67;;
29774;SDS011;16676;51.202;6.774;2023-02-22T15:47:56;3.58;;;2.72;;
29774;SDS011;16676;51.202;6.774;2023-02-22T15:56:23;4.13;;;2.60;;
29774;SDS011;16676;51.202;6.774;2023-02-22T16:00:31;5.88;;;2.55;;
29774;SDS011;16676;51.202;6.774;2023-02-22T16:04:36;3.70;;;2.47;;
29774;SDS011;16676;51.202;6.774;2023-02-22T16:08:40;3.47;;;2.35;;
29774;SDS011;16676;51.202;6.774;2023-02-22T16:12:46;4.25;;;2.60;;
29774;SDS011;16676;51.202;6.774;2023-02-22T16:17:08;4.32;;;2.80;;
29774;SDS011;16676;51.202;6.774;2023-02-22T16:21:13;3.83;;;2.78;;
29774;SDS011;16676;51.202;6.774;2023-02-22T16:25:23;3.63;;;2.30;;
29774;SDS011;16676;51.202;6.774;2023-02-22T16:29:28;4.18;;;2.55;;
29774;SDS011;16676;51.202;6.774;2023-02-22T16:33:32;3.15;;;2.28;;
29774;SDS011;16676;51.202;6.774;2023-02-22T16:37:34;3.33;;;2.40;;
29774;SDS011;16676;51.202;6.774;2023-02-22T16:41:35;3.03;;;2.17;;
29774;SDS011;16676;51.202;6.774;2023-02-22T16:45:37;4.47;;;2.28;;
29774;SDS011;16676;51.202;6.774;2023-02-22T16:49:41;3.85;;;2.42;;
29774;SDS011;16676;51.202;6.774;2023-02-22T16:53:43;3.13;;;2.20;;
29774;SDS011;16676;51.202;6.774;2023-02-22T16:57:45;2.90;;;2.15;;
29774;SDS011;16676;51.202;6.774;2023-02-22T17:01:48;4.93;;;2.28;;
29774;SDS011;16676;51.202;6.774;2023-02-22T17:05:52;4.38;;;2.50;;
29774;SDS011;16676;51.202;6.774;2023-02-22T17:09:54;2.85;;;2.17;;
29774;SDS011;16676;51.202;6.774;2023-02-22T17:13:57;4.47;;;2.63;;
29774;SDS011;16676;51.202;6.774;2023-02-22T17:17:59;5.35;;;2.30;;
29774;SDS011;16676;51.202;6.774;2023-02-22T17:22:05;3.30;;;2.30;;
29774;SDS011;16676;51.202;6.774;2023-02-22T17:26:08;3.92;;;2.30;;
29774;SDS011;16676;51.202;6.774;2023-02-22T17:30:13;3.88;;;2.25;;
29774;SDS011;16676;51.202;6.774;2023-02-22T17:34:16;2.22;;;2.00;;
29774;SDS011;16676;51.202;6.774;2023-02-22T17:38:19;3.38;;;2.10;;
29774;SDS011;16676;51.202;6.774;2023-02-22T17:42:22;3.80;;;2.30;;
29774;SDS011;16676;51.202;6.774;2023-02-22T17:46:23;3.60;;;2.40;;
29774;SDS011;16676;51.202;6.774;2023-02-22T17:50:25;5.07;;;1.80;;
29774;SDS011;16676;51.202;6.774;2023-02-22T17:54:29;3.97;;;2.15;;
29774;SDS011;16676;51.202;6.774;2023-02-22T17:58:31;4.22;;;2.20;;
29774;SDS011;16676;51.202;6.774;2023-02-22T18:02:33;3.42;;;2.38;;
29774;SDS011;16676;51.202;6.774;2023-02-22T18:06:35;4.20;;;1.98;;
29774;SDS011;16676;51.202;6.774;2023-02-22T18:10:39;9.63;;;2.90;;
29774;SDS011;16676;51.202;6.774;2023-02-22T18:14:43;9.32;;;3.25;;
29774;SDS011;16676;51.202;6.774;2023-02-22T18:18:45;9.00;;;3.42;;
29774;SDS011;16676;51.202;6.774;2023-02-22T18:22:48;9.45;;;3.25;;
29774;SDS011;16676;51.202;6.774;2023-02-22T18:26:52;9.68;;;3.15;;
29774;SDS011;16676;51.202;6.774;2023-02-22T18:30:54;11.80;;;3.15;;
29774;SDS011;16676;51.202;6.774;2023-02-22T18:34:58;12.30;;;3.80;;
29774;SDS011;16676;51.202;6.774;2023-02-22T18:39:00;11.63;;;3.72;;
29774;SDS011;16676;51.202;6.774;2023-02-22T18:43:04;11.15;;;3.58;;
29774;SDS011;16676;51.202;6.774;2023-02-22T18:47:05;8.55;;;3.42;;
29774;SDS011;16676;51.202;6.774;2023-02-22T18:51:08;9.88;;;3.90;;
29774;SDS011;16676;51.202;6.774;2023-02-22T18:55:12;11.55;;;3.65;;
29774;SDS011;16676;51.202;6.774;2023-02-22T18:59:16;13.30;;;3.60;;
29774;SDS011;16676;51.202;6.774;2023-02-22T19:03:18;9.35;;;3.45;;
29774;SDS011;16676;51.202;6.774;2023-02-22T19:07:20;7.20;;;3.33;;
29774;SDS011;16676;51.202;6.774;2023-02-22T19:11:25;7.00;;;3.33;;
29774;SDS011;16676;51.202;6.774;2023-02-22T19:15:28;6.45;;;3.20;;
29774;SDS011;16676;51.202;6.774;2023-02-22T19:19:30;10.32;;;3.60;;
29774;SDS011;16676;51.202;6.774;2023-02-22T19:23:32;11.07;;;3.22;;
29774;SDS011;16676;51.202;6.774;2023-02-22T19:27:34;7.35;;;3.03;;
29774;SDS011;16676;51.202;6.774;2023-02-22T19:31:38;8.70;;;3.10;;
29774;SDS011;16676;51.202;6.774;2023-02-22T19:35:40;8.30;;;3.10;;
29774;SDS011;16676;51.202;6.774;2023-02-22T19:39:47;10.38;;;3.60;;
29774;SDS011;16676;51.202;6.774;2023-02-22T19:43:49;9.40;;;3.30;;
29774;SDS011;16676;51.202;6.774;2023-02-22T19:47:54;9.23;;;3.50;;
29774;SDS011;16676;51.202;6.774;2023-02-22T19:51:56;10.00;;;3.22;;
29774;SDS011;16676;51.202;6.774;2023-02-22T19:55:58;9.20;;;2.97;;
29774;SDS011;16676;51.202;6.774;2023-02-22T20:00:00;6.95;;;2.90;;
29774;SDS011;16676;51.202;6.774;2023-02-22T20:04:12;8.15;;;3.33;;
29774;SDS011;16676;51.202;6.774;2023-02-22T20:08:17;5.85;;;2.80;;
29774;SDS011;16676;51.202;6.774;2023-02-22T20:12:19;8.93;;;3.08;;
29774;SDS011;16676;51.202;6.774;2023-02-22T20:16:21;8.43;;;3.40;;
29774;SDS011;16676;51.202;6.774;2023-02-22T20:20:25;7.55;;;3.05;;
29774;SDS011;16676;51.202;6.774;2023-02-22T20:24:27;6.72;;;3.10;;
29774;SDS011;16676;51.202;6.774;2023-02-22T20:28:29;10.27;;;3.50;;
29774;SDS011;16676;51.202;6.774;2023-02-22T20:32:33;6.15;;;2.63;;
29774;SDS011;16676;51.202;6.774;2023-02-22T20:36:38;6.18;;;2.70;;
29774;SDS011;16676;51.202;6.774;2023-02-22T20:40:41;8.20;;;3.22;;
29774;SDS011;16676;51.202;6.774;2023-02-22T20:44:47;6.93;;;2.85;;
29774;SDS011;16676;51.202;6.774;2023-02-22T20:48:52;7.05;;;2.88;;
29774;SDS011;16676;51.202;6.774;2023-02-22T20:52:55;5.50;;;3.08;;
29774;SDS011;16676;51.202;6.774;2023-02-22T20:56:58;10.48;;;3.58;;
29774;SDS011;16676;51.202;6.774;2023-02-22T21:01:02;10.40;;;2.72;;
29774;SDS011;16676;51.202;6.774;2023-02-22T21:05:05;6.05;;;2.90;;
29774;SDS011;16676;51.202;6.774;2023-02-22T21:09:10;10.07;;;2.83;;
29774;SDS011;16676;51.202;6.774;2023-02-22T21:13:13;7.18;;;2.55;;
29774;SDS011;16676;51.202;6.774;2023-02-22T21:17:15;7.13;;;2.92;;
29774;SDS011;16676;51.202;6.774;2023-02-22T21:21:25;12.40;;;3.55;;
29774;SDS011;16676;51.202;6.774;2023-02-22T21:25:29;8.73;;;2.95;;
29774;SDS011;16676;51.202;6.774;2023-02-22T21:29:31;5.53;;;2.65;;
29774;SDS011;16676;51.202;6.774;2023-02-22T21:33:34;6.78;;;2.85;;
29774;SDS011;16676;51.202;6.774;2023-02-22T21:37:37;7.05;;;2.40;;
29774;SDS011;16676;51.202;6.774;2023-02-22T21:41:40;7.82;;;2.80;;
29774;SDS011;16676;51.202;6.774;2023-02-22T21:45:42;5.82;;;3.08;;
29774;SDS011;16676;51.202;6.774;2023-02-22T21:49:44;7.03;;;2.90;;
29774;SDS011;16676;51.202;6.774;2023-02-22T21:53:47;6.15;;;2.63;;
29774;SDS011;16676;51.202;6.774;2023-02-22T21:57:52;7.30;;;2.83;;
29774;SDS011;16676;51.202;6.774;2023-02-22T22:01:54;4.97;;;2.50;;
29774;SDS011;16676;51.202;6.774;2023-02-22T22:05:56;5.95;;;2.38;;
29774;SDS011;16676;51.202;6.774;2023-02-22T22:09:59;7.78;;;2.35;;
29774;SDS011;16676;51.202;6.774;2023-02-22T22:14:04;6.68;;;2.28;;
29774;SDS011;16676;51.202;6.774;2023-02-22T22:18:06;7.65;;;2.92;;
29774;SDS011;16676;51.202;6.774;2023-02-22T22:22:08;6.68;;;3.05;;
29774;SDS011;16676;51.202;6.774;2023-02-22T22:26:10;4.18;;;2.40;;
29774;SDS011;16676;51.202;6.774;2023-02-22T22:30:13;4.50;;;2.60;;
29774;SDS011;16676;51.202;6.774;2023-02-22T22:34:16;6.03;;;2.63;;
29774;SDS011;16676;51.202;6.774;2023-02-22T22:38:18;7.05;;;2.50;;
29774;SDS011;16676;51.202;6.774;2023-02-22T22:42:20;7.55;;;2.72;;
29774;SDS011;16676;51.202;6.774;2023-02-22T22:46:24;4.55;;;2.60;;
29774;SDS011;16676;51.202;6.774;2023-02-22T22:50:26;6.68;;;2.70;;
29774;SDS011;16676;51.202;6.774;2023-02-22T22:54:29;4.88;;;2.58;;
29774;SDS011;16676;51.202;6.774;2023-02-22T22:58:31;6.03;;;2.40;;
29774;SDS011;16676;51.202;6.774;2023-02-22T23:02:35;4.45;;;2.53;;
29774;SDS011;16676;51.202;6.774;2023-02-22T23:06:38;3.42;;;2.08;;
29774;SDS011;16676;51.202;6.774;2023-02-22T23:10:42;6.05;;;2.47;;
29774;SDS011;16676;51.202;6.774;2023-02-22T23:14:45;7.13;;;2.67;;
29774;SDS011;16676;51.202;6.774;2023-02-22T23:18:51;5.25;;;2.58;;
29774;SDS011;16676;51.202;6.774;2023-02-22T23:22:53;3.40;;;2.42;;
29774;SDS011;16676;51.202;6.774;2023-02-22T23:26:57;3.67;;;2.50;;
29774;SDS011;16676;51.202;6.774;2023-02-22T23:31:04;7.38;;;2.60;;
29774;SDS011;16676;51.202;6.774;2023-02-22T23:35:08;4.57;;;2.63;;
29774;SDS011;16676;51.202;6.774;2023-02-22T23:39:12;5.72;;;2.40;;
29774;SDS011;16676;51.202;6.774;2023-02-22T23:43:15;3.97;;;2.40;;
29774;SDS011;16676;51.202;6.774;2023-02-22T23:47:20;4.30;;;2.40;;
29774;SDS011;16676;51.202;6.774;2023-02-22T23:51:23;4.80;;;2.50;;
29774;SDS011;16676;51.202;6.774;2023-02-22T23:55:26;5.72;;;2.90;;
29774;SDS011;16676;51.202;6.774;2023-02-22T23:59:31;4.68;;;2.58;;
